sensor_id;sensor_type;location;lat;lon;timestamp;P1;durP1;ratioP1;P2;durP2;ratioP2
3767;SDS011;1899;49.966;7.106;2023-11-21T00:01:21;4.60;;;1.40;;
3767;SDS011;1899;49.966;7.106;2023-11-21T00:03:46;3.57;;;1.73;;
3767;SDS011;1899;49.966;7.106;2023-11-21T00:06:12;3.27;;;1.40;;
3767;SDS011;1899;49.966;7.106;2023-11-21T00:08:37;3.30;;;1.47;;
3767;SDS011;1899;49.966;7.106;2023-11-21T00:11:02;3.87;;;1.90;;
3767;SDS011;1899;49.966;7.106;2023-11-21T00:13:30;3.53;;;0.90;;
3767;SDS011;1899;49.966;7.106;2023-11-21T00:15:55;5.07;;;1.60;;
3767;SDS011;1899;49.966;7.106;2023-11-21T00:18:20;4.60;;;1.50;;
3767;SDS011;1899;49.966;7.106;2023-11-21T00:20:46;3.37;;;1.30;;
3767;SDS011;1899;49.966;7.106;2023-11-21T00:23:11;3.30;;;1.40;;
3767;SDS011;1899;49.966;7.106;2023-11-21T00:25:36;5.20;;;1.60;;
3767;SDS011;1899;49.966;7.106;2023-11-21T00:28:02;6.13;;;2.30;;
3767;SDS011;1899;49.966;7.106;2023-11-21T00:30:28;3.10;;;1.50;;
3767;SDS011;1899;49.966;7.106;2023-11-21T00:32:54;4.23;;;1.73;;
3767;SDS011;1899;49.966;7.106;2023-11-21T00:35:19;2.77;;;1.03;;
3767;SDS011;1899;49.966;7.106;2023-11-21T00:37:44;3.13;;;1.20;;
3767;SDS011;1899;49.966;7.106;2023-11-21T00:40:10;5.50;;;1.50;;
3767;SDS011;1899;49.966;7.106;2023-11-21T00:42:35;3.17;;;1.37;;
3767;SDS011;1899;49.966;7.106;2023-11-21T00:45:01;2.70;;;1.10;;
3767;SDS011;1899;49.966;7.106;2023-11-21T00:47:26;3.83;;;1.53;;
3767;SDS011;1899;49.966;7.106;2023-11-21T00:49:51;4.40;;;1.47;;
3767;SDS011;1899;49.966;7.106;2023-11-21T00:52:17;4.50;;;1.20;;
3767;SDS011;1899;49.966;7.106;2023-11-21T00:54:43;4.10;;;1.90;;
3767;SDS011;1899;49.966;7.106;2023-11-21T00:57:08;3.53;;;1.87;;
3767;SDS011;1899;49.966;7.106;2023-11-21T00:59:33;3.20;;;1.70;;
3767;SDS011;1899;49.966;7.106;2023-11-21T01:01:59;3.83;;;1.37;;
3767;SDS011;1899;49.966;7.106;2023-11-21T01:04:26;3.50;;;1.50;;
3767;SDS011;1899;49.966;7.106;2023-11-21T01:06:51;3.20;;;1.60;;
3767;SDS011;1899;49.966;7.106;2023-11-21T01:09:16;2.80;;;1.43;;
3767;SDS011;1899;49.966;7.106;2023-11-21T01:11:43;5.27;;;1.67;;
3767;SDS011;1899;49.966;7.106;2023-11-21T01:14:08;3.93;;;2.07;;
3767;SDS011;1899;49.966;7.106;2023-11-21T01:16:35;3.73;;;1.87;;
3767;SDS011;1899;49.966;7.106;2023-11-21T01:19:00;4.40;;;2.20;;
3767;SDS011;1899;49.966;7.106;2023-11-21T01:21:26;3.40;;;1.53;;
3767;SDS011;1899;49.966;7.106;2023-11-21T01:23:53;4.40;;;2.20;;
3767;SDS011;1899;49.966;7.106;2023-11-21T01:26:18;6.17;;;2.43;;
3767;SDS011;1899;49.966;7.106;2023-11-21T01:28:43;6.50;;;2.37;;
3767;SDS011;1899;49.966;7.106;2023-11-21T01:31:08;4.13;;;2.40;;
3767;SDS011;1899;49.966;7.106;2023-11-21T01:33:33;5.20;;;2.40;;
3767;SDS011;1899;49.966;7.106;2023-11-21T01:35:59;5.37;;;2.20;;
3767;SDS011;1899;49.966;7.106;2023-11-21T01:38:25;7.13;;;2.57;;
3767;SDS011;1899;49.966;7.106;2023-11-21T01:40:50;3.97;;;2.33;;
3767;SDS011;1899;49.966;7.106;2023-11-21T01:43:15;6.70;;;2.40;;
3767;SDS011;1899;49.966;7.106;2023-11-21T01:45:40;3.73;;;1.90;;
3767;SDS011;1899;49.966;7.106;2023-11-21T01:48:05;3.80;;;2.37;;
3767;SDS011;1899;49.966;7.106;2023-11-21T01:50:34;2.90;;;1.43;;
3767;SDS011;1899;49.966;7.106;2023-11-21T01:52:59;2.87;;;1.10;;
3767;SDS011;1899;49.966;7.106;2023-11-21T01:55:25;5.20;;;1.00;;
3767;SDS011;1899;49.966;7.106;2023-11-21T01:57:52;2.30;;;0.83;;
3767;SDS011;1899;49.966;7.106;2023-11-21T02:00:17;2.40;;;0.80;;
3767;SDS011;1899;49.966;7.106;2023-11-21T02:02:45;4.60;;;0.90;;
3767;SDS011;1899;49.966;7.106;2023-11-21T02:05:11;2.10;;;0.90;;
3767;SDS011;1899;49.966;7.106;2023-11-21T02:07:37;3.50;;;0.97;;
3767;SDS011;1899;49.966;7.106;2023-11-21T02:10:03;2.10;;;0.70;;
3767;SDS011;1899;49.966;7.106;2023-11-21T02:12:29;7.30;;;1.37;;
3767;SDS011;1899;49.966;7.106;2023-11-21T02:14:54;3.80;;;0.87;;
3767;SDS011;1899;49.966;7.106;2023-11-21T02:17:20;2.33;;;0.90;;
3767;SDS011;1899;49.966;7.106;2023-11-21T02:19:46;2.50;;;1.00;;
3767;SDS011;1899;49.966;7.106;2023-11-21T02:22:12;4.53;;;0.70;;
3767;SDS011;1899;49.966;7.106;2023-11-21T02:24:39;2.40;;;0.90;;
3767;SDS011;1899;49.966;7.106;2023-11-21T02:27:06;2.40;;;0.80;;
3767;SDS011;1899;49.966;7.106;2023-11-21T02:29:31;2.50;;;0.90;;
3767;SDS011;1899;49.966;7.106;2023-11-21T02:31:56;2.10;;;0.70;;
3767;SDS011;1899;49.966;7.106;2023-11-21T02:34:22;4.43;;;1.10;;
3767;SDS011;1899;49.966;7.106;2023-11-21T02:36:47;2.30;;;0.87;;
3767;SDS011;1899;49.966;7.106;2023-11-21T02:39:16;4.40;;;1.00;;
3767;SDS011;1899;49.966;7.106;2023-11-21T02:41:41;2.70;;;0.80;;
3767;SDS011;1899;49.966;7.106;2023-11-21T02:44:07;3.00;;;0.80;;
3767;SDS011;1899;49.966;7.106;2023-11-21T02:46:33;3.10;;;0.67;;
3767;SDS011;1899;49.966;7.106;2023-11-21T02:48:59;2.07;;;0.80;;
3767;SDS011;1899;49.966;7.106;2023-11-21T02:51:24;2.33;;;0.80;;
3767;SDS011;1899;49.966;7.106;2023-11-21T02:53:50;2.10;;;0.70;;
3767;SDS011;1899;49.966;7.106;2023-11-21T02:56:16;2.50;;;0.70;;
3767;SDS011;1899;49.966;7.106;2023-11-21T02:58:41;3.07;;;0.80;;
3767;SDS011;1899;49.966;7.106;2023-11-21T03:01:06;4.00;;;1.07;;
3767;SDS011;1899;49.966;7.106;2023-11-21T03:03:33;2.10;;;0.80;;
3767;SDS011;1899;49.966;7.106;2023-11-21T03:05:58;3.70;;;0.80;;
3767;SDS011;1899;49.966;7.106;2023-11-21T03:08:23;3.37;;;0.77;;
3767;SDS011;1899;49.966;7.106;2023-11-21T03:10:49;2.67;;;1.00;;
3767;SDS011;1899;49.966;7.106;2023-11-21T03:13:14;3.67;;;1.00;;
3767;SDS011;1899;49.966;7.106;2023-11-21T03:15:39;2.17;;;0.60;;
3767;SDS011;1899;49.966;7.106;2023-11-21T03:18:04;2.83;;;0.67;;
3767;SDS011;1899;49.966;7.106;2023-11-21T03:20:30;1.87;;;0.67;;
3767;SDS011;1899;49.966;7.106;2023-11-21T03:22:55;2.00;;;0.70;;
3767;SDS011;1899;49.966;7.106;2023-11-21T03:25:20;3.43;;;0.93;;
3767;SDS011;1899;49.966;7.106;2023-11-21T03:27:45;3.40;;;0.80;;
3767;SDS011;1899;49.966;7.106;2023-11-21T03:30:11;4.20;;;0.83;;
3767;SDS011;1899;49.966;7.106;2023-11-21T03:32:36;2.57;;;0.80;;
3767;SDS011;1899;49.966;7.106;2023-11-21T03:35:01;2.47;;;0.73;;
3767;SDS011;1899;49.966;7.106;2023-11-21T03:37:27;1.93;;;0.60;;
3767;SDS011;1899;49.966;7.106;2023-11-21T03:39:52;3.27;;;0.80;;
3767;SDS011;1899;49.966;7.106;2023-11-21T03:42:20;3.30;;;0.90;;
3767;SDS011;1899;49.966;7.106;2023-11-21T03:44:45;1.97;;;0.70;;
3767;SDS011;1899;49.966;7.106;2023-11-21T03:47:10;2.33;;;0.80;;
3767;SDS011;1899;49.966;7.106;2023-11-21T03:49:35;3.47;;;0.90;;
3767;SDS011;1899;49.966;7.106;2023-11-21T03:52:01;2.23;;;0.70;;
3767;SDS011;1899;49.966;7.106;2023-11-21T03:54:27;3.03;;;0.60;;
3767;SDS011;1899;49.966;7.106;2023-11-21T03:56:52;7.13;;;0.77;;
3767;SDS011;1899;49.966;7.106;2023-11-21T03:59:17;3.33;;;0.70;;
3767;SDS011;1899;49.966;7.106;2023-11-21T04:01:43;1.93;;;0.60;;
3767;SDS011;1899;49.966;7.106;2023-11-21T04:04:08;2.87;;;0.77;;
3767;SDS011;1899;49.966;7.106;2023-11-21T04:06:33;2.97;;;0.70;;
3767;SDS011;1899;49.966;7.106;2023-11-21T04:08:58;2.37;;;0.90;;
3767;SDS011;1899;49.966;7.106;2023-11-21T04:11:24;4.30;;;1.00;;
3767;SDS011;1899;49.966;7.106;2023-11-21T04:13:49;2.70;;;1.10;;
3767;SDS011;1899;49.966;7.106;2023-11-21T04:16:14;2.50;;;0.70;;
3767;SDS011;1899;49.966;7.106;2023-11-21T04:18:39;1.93;;;0.63;;
3767;SDS011;1899;49.966;7.106;2023-11-21T04:21:05;3.13;;;0.80;;
3767;SDS011;1899;49.966;7.106;2023-11-21T04:23:30;3.13;;;0.90;;
3767;SDS011;1899;49.966;7.106;2023-11-21T04:25:58;4.00;;;0.87;;
3767;SDS011;1899;49.966;7.106;2023-11-21T04:28:24;1.90;;;0.60;;
3767;SDS011;1899;49.966;7.106;2023-11-21T04:30:49;3.33;;;0.87;;
3767;SDS011;1899;49.966;7.106;2023-11-21T04:33:15;2.20;;;0.70;;
3767;SDS011;1899;49.966;7.106;2023-11-21T04:35:41;3.13;;;0.80;;
3767;SDS011;1899;49.966;7.106;2023-11-21T04:38:06;2.27;;;0.77;;
3767;SDS011;1899;49.966;7.106;2023-11-21T04:40:31;5.67;;;2.17;;
3767;SDS011;1899;49.966;7.106;2023-11-21T04:42:57;4.77;;;1.00;;
3767;SDS011;1899;49.966;7.106;2023-11-21T04:45:22;4.20;;;1.50;;
3767;SDS011;1899;49.966;7.106;2023-11-21T04:47:47;3.43;;;1.40;;
3767;SDS011;1899;49.966;7.106;2023-11-21T04:50:12;3.57;;;1.43;;
3767;SDS011;1899;49.966;7.106;2023-11-21T04:52:38;4.37;;;1.53;;
3767;SDS011;1899;49.966;7.106;2023-11-21T04:55:03;4.40;;;1.50;;
3767;SDS011;1899;49.966;7.106;2023-11-21T04:57:28;3.40;;;0.90;;
3767;SDS011;1899;49.966;7.106;2023-11-21T04:59:54;3.30;;;1.03;;
3767;SDS011;1899;49.966;7.106;2023-11-21T05:02:19;5.17;;;1.00;;
3767;SDS011;1899;49.966;7.106;2023-11-21T05:04:45;3.47;;;1.10;;
3767;SDS011;1899;49.966;7.106;2023-11-21T05:07:11;3.20;;;0.90;;
3767;SDS011;1899;49.966;7.106;2023-11-21T05:09:40;2.70;;;1.00;;
3767;SDS011;1899;49.966;7.106;2023-11-21T05:12:05;3.23;;;0.87;;
3767;SDS011;1899;49.966;7.106;2023-11-21T05:14:31;2.90;;;0.70;;
3767;SDS011;1899;49.966;7.106;2023-11-21T05:16:56;2.70;;;0.90;;
3767;SDS011;1899;49.966;7.106;2023-11-21T05:19:21;5.83;;;1.00;;
3767;SDS011;1899;49.966;7.106;2023-11-21T05:21:47;7.80;;;0.80;;
3767;SDS011;1899;49.966;7.106;2023-11-21T05:24:12;3.67;;;1.00;;
3767;SDS011;1899;49.966;7.106;2023-11-21T05:26:38;3.13;;;0.90;;
3767;SDS011;1899;49.966;7.106;2023-11-21T05:29:03;10.43;;;1.20;;
3767;SDS011;1899;49.966;7.106;2023-11-21T05:31:29;2.40;;;1.20;;
3767;SDS011;1899;49.966;7.106;2023-11-21T05:33:54;3.60;;;0.90;;
3767;SDS011;1899;49.966;7.106;2023-11-21T05:36:19;7.50;;;1.07;;
3767;SDS011;1899;49.966;7.106;2023-11-21T05:38:44;3.33;;;1.00;;
3767;SDS011;1899;49.966;7.106;2023-11-21T05:41:10;2.50;;;0.90;;
3767;SDS011;1899;49.966;7.106;2023-11-21T05:43:38;3.90;;;1.00;;
3767;SDS011;1899;49.966;7.106;2023-11-21T05:46:03;4.20;;;1.07;;
3767;SDS011;1899;49.966;7.106;2023-11-21T05:48:29;3.53;;;1.00;;
3767;SDS011;1899;49.966;7.106;2023-11-21T05:50:54;4.07;;;1.23;;
3767;SDS011;1899;49.966;7.106;2023-11-21T05:53:20;5.40;;;1.30;;
3767;SDS011;1899;49.966;7.106;2023-11-21T05:55:46;4.40;;;1.60;;
3767;SDS011;1899;49.966;7.106;2023-11-21T05:58:12;8.80;;;1.60;;
3767;SDS011;1899;49.966;7.106;2023-11-21T06:00:38;3.80;;;1.43;;
3767;SDS011;1899;49.966;7.106;2023-11-21T06:03:03;3.43;;;1.80;;
3767;SDS011;1899;49.966;7.106;2023-11-21T06:05:31;5.93;;;1.83;;
3767;SDS011;1899;49.966;7.106;2023-11-21T06:07:57;3.53;;;1.83;;
3767;SDS011;1899;49.966;7.106;2023-11-21T06:10:25;2.90;;;1.50;;
3767;SDS011;1899;49.966;7.106;2023-11-21T06:12:51;6.83;;;1.60;;
3767;SDS011;1899;49.966;7.106;2023-11-21T06:15:17;5.47;;;1.80;;
3767;SDS011;1899;49.966;7.106;2023-11-21T06:17:44;4.87;;;1.60;;
3767;SDS011;1899;49.966;7.106;2023-11-21T06:20:10;5.67;;;1.80;;
3767;SDS011;1899;49.966;7.106;2023-11-21T06:22:39;3.73;;;1.50;;
3767;SDS011;1899;49.966;7.106;2023-11-21T06:25:05;5.53;;;1.87;;
3767;SDS011;1899;49.966;7.106;2023-11-21T06:27:32;4.30;;;1.90;;
3767;SDS011;1899;49.966;7.106;2023-11-21T06:29:57;7.23;;;2.03;;
3767;SDS011;1899;49.966;7.106;2023-11-21T06:32:23;6.47;;;2.33;;
3767;SDS011;1899;49.966;7.106;2023-11-21T06:34:48;5.87;;;2.20;;
3767;SDS011;1899;49.966;7.106;2023-11-21T06:37:15;5.40;;;2.17;;
3767;SDS011;1899;49.966;7.106;2023-11-21T06:39:41;3.90;;;2.33;;
3767;SDS011;1899;49.966;7.106;2023-11-21T06:42:07;9.60;;;2.47;;
3767;SDS011;1899;49.966;7.106;2023-11-21T06:44:32;4.33;;;2.37;;
3767;SDS011;1899;49.966;7.106;2023-11-21T06:46:58;4.13;;;2.00;;
3767;SDS011;1899;49.966;7.106;2023-11-21T06:49:24;4.20;;;2.50;;
3767;SDS011;1899;49.966;7.106;2023-11-21T06:51:49;4.10;;;2.10;;
3767;SDS011;1899;49.966;7.106;2023-11-21T06:54:14;6.33;;;2.50;;
3767;SDS011;1899;49.966;7.106;2023-11-21T06:56:39;4.93;;;2.57;;
3767;SDS011;1899;49.966;7.106;2023-11-21T06:59:06;3.90;;;2.23;;
3767;SDS011;1899;49.966;7.106;2023-11-21T07:01:31;6.73;;;2.00;;
3767;SDS011;1899;49.966;7.106;2023-11-21T07:04:03;4.13;;;2.07;;
3767;SDS011;1899;49.966;7.106;2023-11-21T07:06:29;7.40;;;3.13;;
3767;SDS011;1899;49.966;7.106;2023-11-21T07:08:54;5.23;;;2.47;;
3767;SDS011;1899;49.966;7.106;2023-11-21T07:11:19;5.40;;;2.40;;
3767;SDS011;1899;49.966;7.106;2023-11-21T07:13:44;6.33;;;2.10;;
3767;SDS011;1899;49.966;7.106;2023-11-21T07:16:11;5.30;;;2.00;;
3767;SDS011;1899;49.966;7.106;2023-11-21T07:18:36;5.00;;;2.10;;
3767;SDS011;1899;49.966;7.106;2023-11-21T07:21:01;4.80;;;3.10;;
3767;SDS011;1899;49.966;7.106;2023-11-21T07:23:27;5.37;;;3.10;;
3767;SDS011;1899;49.966;7.106;2023-11-21T07:25:52;5.30;;;2.20;;
3767;SDS011;1899;49.966;7.106;2023-11-21T07:28:17;4.33;;;2.50;;
3767;SDS011;1899;49.966;7.106;2023-11-21T07:30:42;5.03;;;2.47;;
3767;SDS011;1899;49.966;7.106;2023-11-21T07:33:08;6.80;;;3.60;;
3767;SDS011;1899;49.966;7.106;2023-11-21T07:35:33;5.47;;;3.37;;
3767;SDS011;1899;49.966;7.106;2023-11-21T07:37:59;6.33;;;3.10;;
3767;SDS011;1899;49.966;7.106;2023-11-21T07:40:24;4.97;;;2.50;;
3767;SDS011;1899;49.966;7.106;2023-11-21T07:42:49;4.73;;;2.37;;
3767;SDS011;1899;49.966;7.106;2023-11-21T07:45:16;6.27;;;2.80;;
3767;SDS011;1899;49.966;7.106;2023-11-21T07:47:41;4.87;;;2.67;;
3767;SDS011;1899;49.966;7.106;2023-11-21T07:50:07;8.57;;;3.03;;
3767;SDS011;1899;49.966;7.106;2023-11-21T07:52:32;4.67;;;2.80;;
3767;SDS011;1899;49.966;7.106;2023-11-21T07:54:58;7.03;;;2.60;;
3767;SDS011;1899;49.966;7.106;2023-11-21T07:57:23;12.10;;;3.40;;
3767;SDS011;1899;49.966;7.106;2023-11-21T07:59:48;5.80;;;2.93;;
3767;SDS011;1899;49.966;7.106;2023-11-21T08:02:13;5.53;;;3.50;;
3767;SDS011;1899;49.966;7.106;2023-11-21T08:04:41;5.23;;;2.63;;
3767;SDS011;1899;49.966;7.106;2023-11-21T08:07:06;6.03;;;2.53;;
3767;SDS011;1899;49.966;7.106;2023-11-21T08:09:31;6.37;;;3.17;;
3767;SDS011;1899;49.966;7.106;2023-11-21T08:11:58;6.17;;;2.80;;
3767;SDS011;1899;49.966;7.106;2023-11-21T08:14:25;6.90;;;2.90;;
3767;SDS011;1899;49.966;7.106;2023-11-21T08:16:51;13.40;;;4.20;;
3767;SDS011;1899;49.966;7.106;2023-11-21T08:19:16;6.87;;;3.17;;
3767;SDS011;1899;49.966;7.106;2023-11-21T08:21:43;5.73;;;3.07;;
3767;SDS011;1899;49.966;7.106;2023-11-21T08:24:08;7.60;;;3.00;;
3767;SDS011;1899;49.966;7.106;2023-11-21T08:26:36;4.87;;;2.80;;
3767;SDS011;1899;49.966;7.106;2023-11-21T08:29:01;4.50;;;3.10;;
3767;SDS011;1899;49.966;7.106;2023-11-21T08:31:26;7.03;;;2.67;;
3767;SDS011;1899;49.966;7.106;2023-11-21T08:33:51;4.10;;;2.33;;
3767;SDS011;1899;49.966;7.106;2023-11-21T08:36:19;6.20;;;2.90;;
3767;SDS011;1899;49.966;7.106;2023-11-21T08:38:46;5.13;;;2.70;;
3767;SDS011;1899;49.966;7.106;2023-11-21T08:41:11;7.53;;;2.93;;
3767;SDS011;1899;49.966;7.106;2023-11-21T08:43:36;7.40;;;2.90;;
3767;SDS011;1899;49.966;7.106;2023-11-21T08:46:07;4.97;;;2.27;;
3767;SDS011;1899;49.966;7.106;2023-11-21T08:48:36;5.17;;;2.47;;
3767;SDS011;1899;49.966;7.106;2023-11-21T08:51:02;6.93;;;2.63;;
3767;SDS011;1899;49.966;7.106;2023-11-21T08:53:28;7.20;;;3.17;;
3767;SDS011;1899;49.966;7.106;2023-11-21T08:55:54;5.03;;;2.80;;
3767;SDS011;1899;49.966;7.106;2023-11-21T08:58:19;5.27;;;3.13;;
3767;SDS011;1899;49.966;7.106;2023-11-21T09:00:44;5.30;;;3.07;;
3767;SDS011;1899;49.966;7.106;2023-11-21T09:03:11;6.77;;;2.80;;
3767;SDS011;1899;49.966;7.106;2023-11-21T09:05:40;5.40;;;2.50;;
3767;SDS011;1899;49.966;7.106;2023-11-21T09:08:05;6.20;;;3.67;;
3767;SDS011;1899;49.966;7.106;2023-11-21T09:10:31;4.60;;;2.70;;
3767;SDS011;1899;49.966;7.106;2023-11-21T09:12:57;5.40;;;2.40;;
3767;SDS011;1899;49.966;7.106;2023-11-21T09:15:24;6.10;;;3.10;;
3767;SDS011;1899;49.966;7.106;2023-11-21T09:17:50;6.23;;;3.03;;
3767;SDS011;1899;49.966;7.106;2023-11-21T09:20:15;6.17;;;3.30;;
3767;SDS011;1899;49.966;7.106;2023-11-21T09:22:40;5.30;;;2.80;;
3767;SDS011;1899;49.966;7.106;2023-11-21T09:25:06;5.00;;;3.17;;
3767;SDS011;1899;49.966;7.106;2023-11-21T09:27:33;7.30;;;2.90;;
3767;SDS011;1899;49.966;7.106;2023-11-21T09:29:59;4.67;;;2.70;;
3767;SDS011;1899;49.966;7.106;2023-11-21T09:32:24;7.60;;;2.40;;
3767;SDS011;1899;49.966;7.106;2023-11-21T09:34:49;4.67;;;2.93;;
3767;SDS011;1899;49.966;7.106;2023-11-21T09:37:15;6.30;;;2.80;;
3767;SDS011;1899;49.966;7.106;2023-11-21T09:39:40;6.30;;;3.70;;
3767;SDS011;1899;49.966;7.106;2023-11-21T09:42:14;8.70;;;3.50;;
3767;SDS011;1899;49.966;7.106;2023-11-21T09:47:23;5.90;;;3.40;;
3767;SDS011;1899;49.966;7.106;2023-11-21T09:49:49;6.33;;;4.50;;
3767;SDS011;1899;49.966;7.106;2023-11-21T09:52:20;7.27;;;4.03;;
3767;SDS011;1899;49.966;7.106;2023-11-21T09:54:47;6.80;;;4.50;;
3767;SDS011;1899;49.966;7.106;2023-11-21T09:57:14;8.53;;;4.03;;
3767;SDS011;1899;49.966;7.106;2023-11-21T09:59:40;7.73;;;4.77;;
3767;SDS011;1899;49.966;7.106;2023-11-21T10:02:06;11.20;;;5.03;;
3767;SDS011;1899;49.966;7.106;2023-11-21T10:04:35;7.50;;;4.97;;
3767;SDS011;1899;49.966;7.106;2023-11-21T10:07:01;8.30;;;5.57;;
3767;SDS011;1899;49.966;7.106;2023-11-21T10:09:28;10.47;;;6.43;;
3767;SDS011;1899;49.966;7.106;2023-11-21T10:11:54;6.90;;;4.30;;
3767;SDS011;1899;49.966;7.106;2023-11-21T10:14:21;9.83;;;5.77;;
3767;SDS011;1899;49.966;7.106;2023-11-21T10:16:49;8.93;;;5.40;;
3767;SDS011;1899;49.966;7.106;2023-11-21T10:19:15;8.23;;;5.63;;
3767;SDS011;1899;49.966;7.106;2023-11-21T10:21:42;8.57;;;6.00;;
3767;SDS011;1899;49.966;7.106;2023-11-21T10:24:07;9.30;;;5.80;;
3767;SDS011;1899;49.966;7.106;2023-11-21T10:26:32;7.47;;;5.00;;
3767;SDS011;1899;49.966;7.106;2023-11-21T10:28:58;10.87;;;6.20;;
3767;SDS011;1899;49.966;7.106;2023-11-21T10:31:26;9.93;;;5.23;;
3767;SDS011;1899;49.966;7.106;2023-11-21T10:33:52;6.80;;;4.40;;
3767;SDS011;1899;49.966;7.106;2023-11-21T10:36:26;9.00;;;4.80;;
3767;SDS011;1899;49.966;7.106;2023-11-21T10:38:54;8.90;;;5.50;;
3767;SDS011;1899;49.966;7.106;2023-11-21T10:41:20;10.37;;;6.10;;
3767;SDS011;1899;49.966;7.106;2023-11-21T10:43:45;9.30;;;5.10;;
3767;SDS011;1899;49.966;7.106;2023-11-21T10:46:11;7.50;;;5.53;;
3767;SDS011;1899;49.966;7.106;2023-11-21T10:48:36;7.30;;;4.53;;
3767;SDS011;1899;49.966;7.106;2023-11-21T10:51:06;10.70;;;6.30;;
3767;SDS011;1899;49.966;7.106;2023-11-21T10:53:32;9.03;;;5.20;;
3767;SDS011;1899;49.966;7.106;2023-11-21T10:56:05;8.73;;;5.60;;
3767;SDS011;1899;49.966;7.106;2023-11-21T10:58:32;8.03;;;4.70;;
3767;SDS011;1899;49.966;7.106;2023-11-21T11:00:58;8.93;;;5.77;;
3767;SDS011;1899;49.966;7.106;2023-11-21T11:03:24;10.80;;;5.57;;
3767;SDS011;1899;49.966;7.106;2023-11-21T11:05:50;10.80;;;5.60;;
3767;SDS011;1899;49.966;7.106;2023-11-21T11:08:16;13.10;;;6.00;;
3767;SDS011;1899;49.966;7.106;2023-11-21T11:10:44;11.83;;;6.70;;
3767;SDS011;1899;49.966;7.106;2023-11-21T11:13:11;9.40;;;5.10;;
3767;SDS011;1899;49.966;7.106;2023-11-21T11:15:40;8.40;;;5.77;;
3767;SDS011;1899;49.966;7.106;2023-11-21T11:18:05;10.30;;;5.33;;
3767;SDS011;1899;49.966;7.106;2023-11-21T11:20:35;9.47;;;5.80;;
3767;SDS011;1899;49.966;7.106;2023-11-21T11:23:11;8.20;;;5.83;;
3767;SDS011;1899;49.966;7.106;2023-11-21T11:25:52;9.13;;;6.83;;
3767;SDS011;1899;49.966;7.106;2023-11-21T11:28:22;9.20;;;5.77;;
3767;SDS011;1899;49.966;7.106;2023-11-21T11:36:01;8.27;;;5.47;;
3767;SDS011;1899;49.966;7.106;2023-11-21T11:38:30;9.50;;;5.93;;
3767;SDS011;1899;49.966;7.106;2023-11-21T11:40:56;8.47;;;5.53;;
3767;SDS011;1899;49.966;7.106;2023-11-21T11:43:27;9.87;;;5.53;;
3767;SDS011;1899;49.966;7.106;2023-11-21T11:45:55;13.00;;;5.93;;
3767;SDS011;1899;49.966;7.106;2023-11-21T11:48:21;8.50;;;4.93;;
3767;SDS011;1899;49.966;7.106;2023-11-21T11:53:47;11.00;;;6.50;;
3767;SDS011;1899;49.966;7.106;2023-11-21T11:58:43;11.97;;;6.53;;
3767;SDS011;1899;49.966;7.106;2023-11-21T12:01:10;9.80;;;5.40;;
3767;SDS011;1899;49.966;7.106;2023-11-21T12:03:36;12.30;;;6.20;;
3767;SDS011;1899;49.966;7.106;2023-11-21T12:06:02;10.47;;;6.40;;
3767;SDS011;1899;49.966;7.106;2023-11-21T12:08:28;8.23;;;5.00;;
3767;SDS011;1899;49.966;7.106;2023-11-21T12:10:56;9.30;;;6.10;;
3767;SDS011;1899;49.966;7.106;2023-11-21T12:13:22;9.57;;;5.73;;
3767;SDS011;1899;49.966;7.106;2023-11-21T12:15:48;11.93;;;4.90;;
3767;SDS011;1899;49.966;7.106;2023-11-21T12:18:13;7.17;;;4.70;;
3767;SDS011;1899;49.966;7.106;2023-11-21T12:20:39;9.20;;;4.77;;
3767;SDS011;1899;49.966;7.106;2023-11-21T12:23:06;8.10;;;4.77;;
3767;SDS011;1899;49.966;7.106;2023-11-21T12:25:31;6.67;;;3.90;;
3767;SDS011;1899;49.966;7.106;2023-11-21T12:27:58;11.10;;;4.90;;
3767;SDS011;1899;49.966;7.106;2023-11-21T12:30:24;9.10;;;4.93;;
3767;SDS011;1899;49.966;7.106;2023-11-21T12:32:50;7.83;;;4.40;;
3767;SDS011;1899;49.966;7.106;2023-11-21T12:35:22;13.43;;;4.93;;
3767;SDS011;1899;49.966;7.106;2023-11-21T12:37:47;8.27;;;5.13;;
3767;SDS011;1899;49.966;7.106;2023-11-21T12:40:13;8.57;;;5.00;;
3767;SDS011;1899;49.966;7.106;2023-11-21T12:43:13;9.80;;;4.60;;
3767;SDS011;1899;49.966;7.106;2023-11-21T12:45:32;8.53;;;5.00;;
3767;SDS011;1899;49.966;7.106;2023-11-21T12:47:59;8.43;;;4.50;;
3767;SDS011;1899;49.966;7.106;2023-11-21T12:50:25;7.70;;;5.03;;
3767;SDS011;1899;49.966;7.106;2023-11-21T12:52:54;9.90;;;5.50;;
3767;SDS011;1899;49.966;7.106;2023-11-21T12:55:20;10.50;;;5.73;;
3767;SDS011;1899;49.966;7.106;2023-11-21T12:57:49;10.63;;;5.53;;
3767;SDS011;1899;49.966;7.106;2023-11-21T13:00:17;11.40;;;6.23;;
3767;SDS011;1899;49.966;7.106;2023-11-21T13:02:55;9.27;;;4.67;;
3767;SDS011;1899;49.966;7.106;2023-11-21T13:05:28;8.60;;;5.73;;
3767;SDS011;1899;49.966;7.106;2023-11-21T13:07:57;11.50;;;7.40;;
3767;SDS011;1899;49.966;7.106;2023-11-21T13:10:25;10.53;;;6.60;;
3767;SDS011;1899;49.966;7.106;2023-11-21T13:12:54;10.10;;;5.77;;
3767;SDS011;1899;49.966;7.106;2023-11-21T13:15:20;9.23;;;6.03;;
3767;SDS011;1899;49.966;7.106;2023-11-21T13:17:45;9.17;;;5.37;;
3767;SDS011;1899;49.966;7.106;2023-11-21T13:20:11;11.63;;;5.67;;
3767;SDS011;1899;49.966;7.106;2023-11-21T13:22:44;12.47;;;6.13;;
3767;SDS011;1899;49.966;7.106;2023-11-21T13:25:10;8.50;;;5.57;;
3767;SDS011;1899;49.966;7.106;2023-11-21T13:27:35;12.87;;;6.07;;
3767;SDS011;1899;49.966;7.106;2023-11-21T13:30:02;11.37;;;6.50;;
3767;SDS011;1899;49.966;7.106;2023-11-21T13:32:28;10.97;;;6.13;;
3767;SDS011;1899;49.966;7.106;2023-11-21T13:34:54;10.17;;;6.07;;
3767;SDS011;1899;49.966;7.106;2023-11-21T13:37:20;11.43;;;6.40;;
3767;SDS011;1899;49.966;7.106;2023-11-21T13:39:45;11.77;;;5.90;;
3767;SDS011;1899;49.966;7.106;2023-11-21T13:42:14;13.50;;;6.73;;
3767;SDS011;1899;49.966;7.106;2023-11-21T13:44:41;12.43;;;5.63;;
3767;SDS011;1899;49.966;7.106;2023-11-21T13:47:09;12.93;;;5.77;;
3767;SDS011;1899;49.966;7.106;2023-11-21T13:49:35;10.00;;;6.13;;
3767;SDS011;1899;49.966;7.106;2023-11-21T13:52:01;8.60;;;5.50;;
3767;SDS011;1899;49.966;7.106;2023-11-21T13:54:28;13.43;;;6.40;;
3767;SDS011;1899;49.966;7.106;2023-11-21T13:56:54;11.27;;;6.20;;
3767;SDS011;1899;49.966;7.106;2023-11-21T13:59:19;13.87;;;7.03;;
3767;SDS011;1899;49.966;7.106;2023-11-21T14:01:50;10.13;;;6.30;;
3767;SDS011;1899;49.966;7.106;2023-11-21T14:04:24;12.23;;;5.90;;
3767;SDS011;1899;49.966;7.106;2023-11-21T14:07:10;9.77;;;6.47;;
3767;SDS011;1899;49.966;7.106;2023-11-21T14:10:04;10.83;;;5.80;;
3767;SDS011;1899;49.966;7.106;2023-11-21T14:12:38;10.13;;;6.17;;
3767;SDS011;1899;49.966;7.106;2023-11-21T14:15:06;10.40;;;6.00;;
3767;SDS011;1899;49.966;7.106;2023-11-21T14:17:34;12.27;;;6.70;;
3767;SDS011;1899;49.966;7.106;2023-11-21T14:20:00;12.13;;;6.57;;
3767;SDS011;1899;49.966;7.106;2023-11-21T14:22:27;11.07;;;6.70;;
3767;SDS011;1899;49.966;7.106;2023-11-21T14:24:52;13.47;;;6.90;;
3767;SDS011;1899;49.966;7.106;2023-11-21T14:27:20;11.00;;;6.87;;
3767;SDS011;1899;49.966;7.106;2023-11-21T14:29:46;11.50;;;6.70;;
3767;SDS011;1899;49.966;7.106;2023-11-21T14:32:11;13.03;;;7.47;;
3767;SDS011;1899;49.966;7.106;2023-11-21T14:34:36;10.67;;;6.43;;
3767;SDS011;1899;49.966;7.106;2023-11-21T14:37:03;11.83;;;7.37;;
3767;SDS011;1899;49.966;7.106;2023-11-21T14:39:28;13.73;;;7.60;;
3767;SDS011;1899;49.966;7.106;2023-11-21T14:41:54;9.70;;;6.90;;
3767;SDS011;1899;49.966;7.106;2023-11-21T14:44:24;12.20;;;6.90;;
3767;SDS011;1899;49.966;7.106;2023-11-21T14:46:52;12.50;;;7.20;;
3767;SDS011;1899;49.966;7.106;2023-11-21T14:49:19;15.80;;;7.27;;
3767;SDS011;1899;49.966;7.106;2023-11-21T14:51:46;15.47;;;7.00;;
3767;SDS011;1899;49.966;7.106;2023-11-21T14:54:20;12.13;;;7.17;;
3767;SDS011;1899;49.966;7.106;2023-11-21T14:57:02;12.73;;;7.23;;
3767;SDS011;1899;49.966;7.106;2023-11-21T14:59:27;13.47;;;7.83;;
3767;SDS011;1899;49.966;7.106;2023-11-21T15:01:52;12.00;;;6.50;;
3767;SDS011;1899;49.966;7.106;2023-11-21T15:04:21;11.87;;;7.10;;
3767;SDS011;1899;49.966;7.106;2023-11-21T15:07:03;10.47;;;6.10;;
3767;SDS011;1899;49.966;7.106;2023-11-21T15:09:29;10.37;;;6.50;;
3767;SDS011;1899;49.966;7.106;2023-11-21T15:12:14;12.60;;;6.80;;
3767;SDS011;1899;49.966;7.106;2023-11-21T15:14:46;13.43;;;7.30;;
3767;SDS011;1899;49.966;7.106;2023-11-21T15:17:14;16.03;;;7.20;;
3767;SDS011;1899;49.966;7.106;2023-11-21T15:19:52;12.23;;;7.00;;
3767;SDS011;1899;49.966;7.106;2023-11-21T15:22:18;12.60;;;7.30;;